sensor_id;sensor_type;location;lat;lon;timestamp;temperature;humidity
78733;DHT22;68056;52.530;5.454;2024-01-11T00:00:44;-4.60;60.70
78733;DHT22;68056;52.530;5.454;2024-01-11T00:03:10;-4.60;60.70
78733;DHT22;68056;52.530;5.454;2024-01-11T00:05:35;-4.70;60.80
78733;DHT22;68056;52.530;5.454;2024-01-11T00:08:01;-4.70;60.80
78733;DHT22;68056;52.530;5.454;2024-01-11T00:10:27;-4.70;60.80
78733;DHT22;68056;52.530;5.454;2024-01-11T00:12:53;-4.80;60.80
78733;DHT22;68056;52.530;5.454;2024-01-11T00:15:19;-4.80;60.90
78733;DHT22;68056;52.530;5.454;2024-01-11T00:17:44;-4.80;60.80
78733;DHT22;68056;52.530;5.454;2024-01-11T00:20:10;-4.80;60.90
78733;DHT22;68056;52.530;5.454;2024-01-11T00:22:36;-4.80;60.90
78733;DHT22;68056;52.530;5.454;2024-01-11T00:25:02;-4.80;60.80
78733;DHT22;68056;52.530;5.454;2024-01-11T00:27:28;-4.80;60.80
78733;DHT22;68056;52.530;5.454;2024-01-11T00:29:53;-4.80;60.90
78733;DHT22;68056;52.530;5.454;2024-01-11T00:32:19;-4.90;60.90
78733;DHT22;68056;52.530;5.454;2024-01-11T00:34:46;-4.90;61.00
78733;DHT22;68056;52.530;5.454;2024-01-11T00:37:12;-4.90;61.00
78733;DHT22;68056;52.530;5.454;2024-01-11T00:39:37;-4.90;61.00
78733;DHT22;68056;52.530;5.454;2024-01-11T00:42:03;-4.90;61.00
78733;DHT22;68056;52.530;5.454;2024-01-11T00:44:29;-4.90;61.10
78733;DHT22;68056;52.530;5.454;2024-01-11T00:46:55;-4.90;61.10
78733;DHT22;68056;52.530;5.454;2024-01-11T00:49:21;-5.00;61.10
78733;DHT22;68056;52.530;5.454;2024-01-11T00:51:46;-5.00;61.10
78733;DHT22;68056;52.530;5.454;2024-01-11T00:54:12;-4.90;61.20
78733;DHT22;68056;52.530;5.454;2024-01-11T00:56:37;-4.90;61.20
78733;DHT22;68056;52.530;5.454;2024-01-11T00:59:03;-4.90;61.00
78733;DHT22;68056;52.530;5.454;2024-01-11T01:01:29;-4.90;61.10
78733;DHT22;68056;52.530;5.454;2024-01-11T01:03:55;-4.90;61.10
78733;DHT22;68056;52.530;5.454;2024-01-11T01:06:20;-4.90;61.10
78733;DHT22;68056;52.530;5.454;2024-01-11T01:08:46;-4.90;61.20
78733;DHT22;68056;52.530;5.454;2024-01-11T01:11:12;-4.90;61.10
78733;DHT22;68056;52.530;5.454;2024-01-11T01:13:37;-5.00;61.20
78733;DHT22;68056;52.530;5.454;2024-01-11T01:16:03;-5.00;61.20
78733;DHT22;68056;52.530;5.454;2024-01-11T01:18:29;-5.10;61.30
78733;DHT22;68056;52.530;5.454;2024-01-11T01:20:55;-5.10;61.30
78733;DHT22;68056;52.530;5.454;2024-01-11T01:23:21;-5.10;61.30
78733;DHT22;68056;52.530;5.454;2024-01-11T01:25:47;-5.10;61.40
78733;DHT22;68056;52.530;5.454;2024-01-11T01:28:12;-5.10;61.30
78733;DHT22;68056;52.530;5.454;2024-01-11T01:30:38;-5.20;61.40
78733;DHT22;68056;52.530;5.454;2024-01-11T01:33:03;-5.20;61.40
78733;DHT22;68056;52.530;5.454;2024-01-11T01:35:29;-5.20;61.40
78733;DHT22;68056;52.530;5.454;2024-01-11T01:37:55;-5.20;61.50
78733;DHT22;68056;52.530;5.454;2024-01-11T01:40:20;-5.20;61.60
78733;DHT22;68056;52.530;5.454;2024-01-11T01:42:46;-5.20;61.50
78733;DHT22;68056;52.530;5.454;2024-01-11T01:45:12;-5.20;61.50
78733;DHT22;68056;52.530;5.454;2024-01-11T01:47:40;-5.20;61.50
78733;DHT22;68056;52.530;5.454;2024-01-11T01:50:06;-5.20;61.60
78733;DHT22;68056;52.530;5.454;2024-01-11T01:52:33;-5.20;61.60
78733;DHT22;68056;52.530;5.454;2024-01-11T01:55:01;-5.20;61.60
78733;DHT22;68056;52.530;5.454;2024-01-11T01:57:28;-5.20;61.60
78733;DHT22;68056;52.530;5.454;2024-01-11T01:59:56;-5.20;61.60
78733;DHT22;68056;52.530;5.454;2024-01-11T02:02:21;-5.20;61.60
78733;DHT22;68056;52.530;5.454;2024-01-11T02:04:47;-5.20;61.60
78733;DHT22;68056;52.530;5.454;2024-01-11T02:07:13;-5.20;61.60
78733;DHT22;68056;52.530;5.454;2024-01-11T02:09:40;-5.20;61.60
78733;DHT22;68056;52.530;5.454;2024-01-11T02:12:06;-5.20;61.70
78733;DHT22;68056;52.530;5.454;2024-01-11T02:14:32;-5.20;61.70
78733;DHT22;68056;52.530;5.454;2024-01-11T02:16:57;-5.20;61.70
78733;DHT22;68056;52.530;5.454;2024-01-11T02:19:23;-5.20;61.70
78733;DHT22;68056;52.530;5.454;2024-01-11T02:21:51;-5.20;61.70
78733;DHT22;68056;52.530;5.454;2024-01-11T02:24:19;-5.20;61.70
78733;DHT22;68056;52.530;5.454;2024-01-11T02:27:01;-5.20;61.80
78733;DHT22;68056;52.530;5.454;2024-01-11T02:29:28;-5.10;61.70
78733;DHT22;68056;52.530;5.454;2024-01-11T02:31:55;-5.10;61.80
78733;DHT22;68056;52.530;5.454;2024-01-11T02:34:21;-5.10;61.70
78733;DHT22;68056;52.530;5.454;2024-01-11T02:36:46;-5.10;61.70
78733;DHT22;68056;52.530;5.454;2024-01-11T02:39:13;-5.10;61.80
78733;DHT22;68056;52.530;5.454;2024-01-11T02:41:42;-5.10;61.80
78733;DHT22;68056;52.530;5.454;2024-01-11T02:44:08;-5.10;61.80
78733;DHT22;68056;52.530;5.454;2024-01-11T02:46:34;-5.20;61.90
78733;DHT22;68056;52.530;5.454;2024-01-11T02:48:59;-5.20;61.90
78733;DHT22;68056;52.530;5.454;2024-01-11T02:51:25;-5.20;61.90
78733;DHT22;68056;52.530;5.454;2024-01-11T02:53:51;-5.20;62.00
78733;DHT22;68056;52.530;5.454;2024-01-11T02:56:16;-5.20;62.00
78733;DHT22;68056;52.530;5.454;2024-01-11T02:58:42;-5.20;62.10
78733;DHT22;68056;52.530;5.454;2024-01-11T03:01:07;-5.20;62.10
78733;DHT22;68056;52.530;5.454;2024-01-11T03:03:33;-5.20;62.10
78733;DHT22;68056;52.530;5.454;2024-01-11T03:05:58;-5.20;62.10
78733;DHT22;68056;52.530;5.454;2024-01-11T03:08:24;-5.20;62.20
78733;DHT22;68056;52.530;5.454;2024-01-11T03:10:49;-5.20;62.10
78733;DHT22;68056;52.530;5.454;2024-01-11T03:13:15;-5.20;62.10
78733;DHT22;68056;52.530;5.454;2024-01-11T03:15:41;-5.20;62.10
78733;DHT22;68056;52.530;5.454;2024-01-11T03:18:06;-5.10;62.10
78733;DHT22;68056;52.530;5.454;2024-01-11T03:20:32;-5.10;62.10
78733;DHT22;68056;52.530;5.454;2024-01-11T03:22:57;-5.20;62.10
78733;DHT22;68056;52.530;5.454;2024-01-11T03:25:23;-5.10;62.10
78733;DHT22;68056;52.530;5.454;2024-01-11T03:27:48;-5.10;62.10
78733;DHT22;68056;52.530;5.454;2024-01-11T03:30:14;-5.10;62.10
78733;DHT22;68056;52.530;5.454;2024-01-11T03:32:41;-5.20;62.20
78733;DHT22;68056;52.530;5.454;2024-01-11T03:35:08;-5.20;62.20
78733;DHT22;68056;52.530;5.454;2024-01-11T03:37:34;-5.20;62.20
78733;DHT22;68056;52.530;5.454;2024-01-11T03:40:00;-5.20;62.30
78733;DHT22;68056;52.530;5.454;2024-01-11T03:42:26;-5.20;62.20
78733;DHT22;68056;52.530;5.454;2024-01-11T03:44:51;-5.30;62.30
78733;DHT22;68056;52.530;5.454;2024-01-11T03:47:17;-5.40;62.40
78733;DHT22;68056;52.530;5.454;2024-01-11T03:49:42;-5.40;62.50
78733;DHT22;68056;52.530;5.454;2024-01-11T03:52:08;-5.40;62.50
78733;DHT22;68056;52.530;5.454;2024-01-11T03:54:33;-5.40;62.50
78733;DHT22;68056;52.530;5.454;2024-01-11T03:56:59;-5.40;62.50
78733;DHT22;68056;52.530;5.454;2024-01-11T03:59:25;-5.40;62.50
78733;DHT22;68056;52.530;5.454;2024-01-11T04:01:51;-5.40;62.50
78733;DHT22;68056;52.530;5.454;2024-01-11T04:04:18;-5.40;62.40
78733;DHT22;68056;52.530;5.454;2024-01-11T04:06:44;-5.40;62.40
78733;DHT22;68056;52.530;5.454;2024-01-11T04:09:10;-5.40;62.50
78733;DHT22;68056;52.530;5.454;2024-01-11T04:11:36;-5.40;62.60
78733;DHT22;68056;52.530;5.454;2024-01-11T04:14:01;-5.40;62.60
78733;DHT22;68056;52.530;5.454;2024-01-11T04:16:27;-5.40;62.50
78733;DHT22;68056;52.530;5.454;2024-01-11T04:18:52;-5.40;62.60
78733;DHT22;68056;52.530;5.454;2024-01-11T04:21:24;-5.40;62.60
78733;DHT22;68056;52.530;5.454;2024-01-11T04:23:50;-5.40;62.60
78733;DHT22;68056;52.530;5.454;2024-01-11T04:26:17;-5.40;62.60
78733;DHT22;68056;52.530;5.454;2024-01-11T04:28:45;-5.40;62.50
78733;DHT22;68056;52.530;5.454;2024-01-11T04:31:11;-5.40;62.50
78733;DHT22;68056;52.530;5.454;2024-01-11T04:33:43;-5.30;62.50
78733;DHT22;68056;52.530;5.454;2024-01-11T04:36:09;-5.30;62.50
78733;DHT22;68056;52.530;5.454;2024-01-11T04:38:35;-5.30;62.50
78733;DHT22;68056;52.530;5.454;2024-01-11T04:41:01;-5.30;62.50
78733;DHT22;68056;52.530;5.454;2024-01-11T04:43:26;-5.30;62.50
78733;DHT22;68056;52.530;5.454;2024-01-11T04:45:52;-5.30;62.50
78733;DHT22;68056;52.530;5.454;2024-01-11T04:48:18;-5.40;62.60
78733;DHT22;68056;52.530;5.454;2024-01-11T04:50:45;-5.30;62.60
78733;DHT22;68056;52.530;5.454;2024-01-11T04:53:10;-5.40;62.50
78733;DHT22;68056;52.530;5.454;2024-01-11T04:55:36;-5.40;62.60
78733;DHT22;68056;52.530;5.454;2024-01-11T04:58:02;-5.40;62.60
78733;DHT22;68056;52.530;5.454;2024-01-11T05:00:28;-5.40;62.60
78733;DHT22;68056;52.530;5.454;2024-01-11T05:02:53;-5.40;62.70
78733;DHT22;68056;52.530;5.454;2024-01-11T05:05:20;-5.40;62.70
78733;DHT22;68056;52.530;5.454;2024-01-11T05:07:46;-5.40;62.70
78733;DHT22;68056;52.530;5.454;2024-01-11T05:10:11;-5.40;62.70
78733;DHT22;68056;52.530;5.454;2024-01-11T05:12:37;-5.40;62.70
78733;DHT22;68056;52.530;5.454;2024-01-11T05:15:04;-5.40;62.60
78733;DHT22;68056;52.530;5.454;2024-01-11T05:17:31;-5.50;62.80
78733;DHT22;68056;52.530;5.454;2024-01-11T05:19:57;-5.60;62.80
78733;DHT22;68056;52.530;5.454;2024-01-11T05:22:22;-5.60;62.80
78733;DHT22;68056;52.530;5.454;2024-01-11T05:24:48;-5.60;62.80
78733;DHT22;68056;52.530;5.454;2024-01-11T05:27:13;-5.60;62.90
78733;DHT22;68056;52.530;5.454;2024-01-11T05:29:39;-5.60;62.90
78733;DHT22;68056;52.530;5.454;2024-01-11T05:32:05;-5.60;62.90
78733;DHT22;68056;52.530;5.454;2024-01-11T05:34:30;-5.60;62.90
78733;DHT22;68056;52.530;5.454;2024-01-11T05:36:56;-5.60;62.90
78733;DHT22;68056;52.530;5.454;2024-01-11T05:39:22;-5.60;62.90
78733;DHT22;68056;52.530;5.454;2024-01-11T05:41:47;-5.60;62.90
78733;DHT22;68056;52.530;5.454;2024-01-11T05:44:13;-5.70;62.90
78733;DHT22;68056;52.530;5.454;2024-01-11T05:46:38;-5.70;63.00
78733;DHT22;68056;52.530;5.454;2024-01-11T05:49:04;-5.80;63.00
78733;DHT22;68056;52.530;5.454;2024-01-11T05:51:30;-5.70;63.10
78733;DHT22;68056;52.530;5.454;2024-01-11T05:53:55;-5.70;63.00
78733;DHT22;68056;52.530;5.454;2024-01-11T05:56:21;-5.80;63.00
78733;DHT22;68056;52.530;5.454;2024-01-11T05:58:46;-5.70;63.00
78733;DHT22;68056;52.530;5.454;2024-01-11T06:01:12;-5.70;62.90
78733;DHT22;68056;52.530;5.454;2024-01-11T06:03:38;-5.70;63.00
78733;DHT22;68056;52.530;5.454;2024-01-11T06:06:05;-5.80;63.00
78733;DHT22;68056;52.530;5.454;2024-01-11T06:08:31;-5.80;62.90
78733;DHT22;68056;52.530;5.454;2024-01-11T06:10:57;-5.80;62.90
78733;DHT22;68056;52.530;5.454;2024-01-11T06:13:23;-5.70;62.90
78733;DHT22;68056;52.530;5.454;2024-01-11T06:15:49;-5.70;63.00
78733;DHT22;68056;52.530;5.454;2024-01-11T06:18:15;-5.70;62.90
78733;DHT22;68056;52.530;5.454;2024-01-11T06:20:41;-5.70;63.00
78733;DHT22;68056;52.530;5.454;2024-01-11T06:23:07;-5.70;62.90
78733;DHT22;68056;52.530;5.454;2024-01-11T06:25:32;-5.70;62.90
78733;DHT22;68056;52.530;5.454;2024-01-11T06:27:58;-5.70;62.90
78733;DHT22;68056;52.530;5.454;2024-01-11T06:30:23;-5.70;62.90
78733;DHT22;68056;52.530;5.454;2024-01-11T06:32:49;-5.60;63.00
78733;DHT22;68056;52.530;5.454;2024-01-11T06:35:14;-5.60;62.90
78733;DHT22;68056;52.530;5.454;2024-01-11T06:37:40;-5.60;62.80
78733;DHT22;68056;52.530;5.454;2024-01-11T06:40:06;-5.60;62.80
78733;DHT22;68056;52.530;5.454;2024-01-11T06:42:33;-5.60;62.80
78733;DHT22;68056;52.530;5.454;2024-01-11T06:44:59;-5.60;62.80
78733;DHT22;68056;52.530;5.454;2024-01-11T06:47:25;-5.60;62.80
78733;DHT22;68056;52.530;5.454;2024-01-11T06:49:50;-5.60;62.90
78733;DHT22;68056;52.530;5.454;2024-01-11T06:52:16;-5.50;62.80
78733;DHT22;68056;52.530;5.454;2024-01-11T06:54:41;-5.60;62.80
78733;DHT22;68056;52.530;5.454;2024-01-11T06:57:07;-5.50;62.80
78733;DHT22;68056;52.530;5.454;2024-01-11T06:59:33;-5.50;62.80
78733;DHT22;68056;52.530;5.454;2024-01-11T07:01:58;-5.40;62.80
78733;DHT22;68056;52.530;5.454;2024-01-11T07:04:24;-5.40;62.90
78733;DHT22;68056;52.530;5.454;2024-01-11T07:06:49;-5.40;62.90
78733;DHT22;68056;52.530;5.454;2024-01-11T07:09:15;-5.40;62.90
78733;DHT22;68056;52.530;5.454;2024-01-11T07:11:42;-5.40;62.90
78733;DHT22;68056;52.530;5.454;2024-01-11T07:14:08;-5.50;62.90
78733;DHT22;68056;52.530;5.454;2024-01-11T07:16:34;-5.50;62.90
78733;DHT22;68056;52.530;5.454;2024-01-11T07:19:00;-5.40;62.90
78733;DHT22;68056;52.530;5.454;2024-01-11T07:21:26;-5.40;62.90
78733;DHT22;68056;52.530;5.454;2024-01-11T07:24:01;-5.40;63.00
78733;DHT22;68056;52.530;5.454;2024-01-11T07:26:27;-5.40;63.00
78733;DHT22;68056;52.530;5.454;2024-01-11T07:28:53;-5.40;63.00
78733;DHT22;68056;52.530;5.454;2024-01-11T07:31:20;-5.40;63.00
78733;DHT22;68056;52.530;5.454;2024-01-11T07:33:46;-5.40;63.00
78733;DHT22;68056;52.530;5.454;2024-01-11T07:36:11;-5.40;63.10
78733;DHT22;68056;52.530;5.454;2024-01-11T07:38:37;-5.40;63.10
78733;DHT22;68056;52.530;5.454;2024-01-11T07:41:03;-5.40;63.10
78733;DHT22;68056;52.530;5.454;2024-01-11T07:43:29;-5.20;63.10
78733;DHT22;68056;52.530;5.454;2024-01-11T07:45:55;-5.20;63.10
78733;DHT22;68056;52.530;5.454;2024-01-11T07:48:23;-5.20;63.10
78733;DHT22;68056;52.530;5.454;2024-01-11T07:50:49;-5.10;63.00
78733;DHT22;68056;52.530;5.454;2024-01-11T07:53:15;-5.10;62.90
78733;DHT22;68056;52.530;5.454;2024-01-11T07:55:41;-5.00;63.00
78733;DHT22;68056;52.530;5.454;2024-01-11T07:58:07;-4.90;62.90
78733;DHT22;68056;52.530;5.454;2024-01-11T08:00:32;-4.90;62.90
78733;DHT22;68056;52.530;5.454;2024-01-11T08:02:59;-4.80;62.90
78733;DHT22;68056;52.530;5.454;2024-01-11T08:05:25;-4.60;62.80
78733;DHT22;68056;52.530;5.454;2024-01-11T08:07:51;-4.60;62.80
78733;DHT22;68056;52.530;5.454;2024-01-11T08:10:16;-4.60;62.80
78733;DHT22;68056;52.530;5.454;2024-01-11T08:12:42;-4.60;62.80
78733;DHT22;68056;52.530;5.454;2024-01-11T08:15:08;-4.40;62.80
78733;DHT22;68056;52.530;5.454;2024-01-11T08:17:44;-4.40;62.80
78733;DHT22;68056;52.530;5.454;2024-01-11T08:20:10;-4.30;62.80
78733;DHT22;68056;52.530;5.454;2024-01-11T08:22:39;-4.20;62.70
78733;DHT22;68056;52.530;5.454;2024-01-11T08:25:05;-4.20;62.80
78733;DHT22;68056;52.530;5.454;2024-01-11T08:27:31;-4.10;62.80
78733;DHT22;68056;52.530;5.454;2024-01-11T08:29:57;-4.00;62.80
78733;DHT22;68056;52.530;5.454;2024-01-11T08:32:23;-4.00;62.90
78733;DHT22;68056;52.530;5.454;2024-01-11T08:34:48;-4.00;62.80
78733;DHT22;68056;52.530;5.454;2024-01-11T08:37:14;-4.00;62.90
78733;DHT22;68056;52.530;5.454;2024-01-11T08:39:40;-3.80;62.90
78733;DHT22;68056;52.530;5.454;2024-01-11T08:42:06;-3.80;63.00
78733;DHT22;68056;52.530;5.454;2024-01-11T08:44:31;-3.80;62.90
78733;DHT22;68056;52.530;5.454;2024-01-11T08:46:57;-3.70;63.00
78733;DHT22;68056;52.530;5.454;2024-01-11T08:49:24;-3.60;63.00
78733;DHT22;68056;52.530;5.454;2024-01-11T08:51:50;-3.60;63.00
78733;DHT22;68056;52.530;5.454;2024-01-11T08:54:15;-3.50;63.10
78733;DHT22;68056;52.530;5.454;2024-01-11T08:56:42;-3.40;63.10
78733;DHT22;68056;52.530;5.454;2024-01-11T08:59:08;-3.40;63.20
78733;DHT22;68056;52.530;5.454;2024-01-11T09:01:36;-3.20;63.20
78733;DHT22;68056;52.530;5.454;2024-01-11T09:04:02;-3.20;63.20
78733;DHT22;68056;52.530;5.454;2024-01-11T09:06:28;-3.10;63.20
78733;DHT22;68056;52.530;5.454;2024-01-11T09:08:54;-3.10;63.20
78733;DHT22;68056;52.530;5.454;2024-01-11T09:11:19;-3.00;63.20
78733;DHT22;68056;52.530;5.454;2024-01-11T09:13:45;-3.00;63.30
78733;DHT22;68056;52.530;5.454;2024-01-11T09:16:15;-2.90;63.20
78733;DHT22;68056;52.530;5.454;2024-01-11T09:18:41;-2.80;63.40
78733;DHT22;68056;52.530;5.454;2024-01-11T09:21:07;-2.80;63.40
78733;DHT22;68056;52.530;5.454;2024-01-11T09:23:33;-2.80;63.40
78733;DHT22;68056;52.530;5.454;2024-01-11T09:25:59;-2.70;63.50
78733;DHT22;68056;52.530;5.454;2024-01-11T09:28:25;-2.60;63.50
78733;DHT22;68056;52.530;5.454;2024-01-11T09:30:50;-2.60;63.60
78733;DHT22;68056;52.530;5.454;2024-01-11T09:33:16;-2.50;63.50
78733;DHT22;68056;52.530;5.454;2024-01-11T09:35:41;-2.40;63.60
78733;DHT22;68056;52.530;5.454;2024-01-11T09:38:07;-2.40;63.60
78733;DHT22;68056;52.530;5.454;2024-01-11T09:40:32;-2.30;63.60
78733;DHT22;68056;52.530;5.454;2024-01-11T09:42:58;-2.20;63.60
78733;DHT22;68056;52.530;5.454;2024-01-11T09:45:24;-2.20;63.70
78733;DHT22;68056;52.530;5.454;2024-01-11T09:47:51;-2.10;63.70
78733;DHT22;68056;52.530;5.454;2024-01-11T09:50:18;-2.10;63.80
78733;DHT22;68056;52.530;5.454;2024-01-11T09:52:49;-2.10;63.80
78733;DHT22;68056;52.530;5.454;2024-01-11T09:55:15;-2.10;63.90
78733;DHT22;68056;52.530;5.454;2024-01-11T09:57:46;-1.90;63.90
78733;DHT22;68056;52.530;5.454;2024-01-11T10:00:21;-1.90;64.00
78733;DHT22;68056;52.530;5.454;2024-01-11T10:02:47;-1.80;64.00
78733;DHT22;68056;52.530;5.454;2024-01-11T10:05:13;-1.80;64.00
78733;DHT22;68056;52.530;5.454;2024-01-11T10:07:41;-1.70;64.00
78733;DHT22;68056;52.530;5.454;2024-01-11T10:10:08;-1.70;64.00
78733;DHT22;68056;52.530;5.454;2024-01-11T10:12:38;-1.60;64.10
78733;DHT22;68056;52.530;5.454;2024-01-11T10:15:05;-1.60;64.10
78733;DHT22;68056;52.530;5.454;2024-01-11T10:17:41;-1.50;64.10
78733;DHT22;68056;52.530;5.454;2024-01-11T10:20:08;-1.50;64.20
78733;DHT22;68056;52.530;5.454;2024-01-11T10:22:36;-1.40;64.20
78733;DHT22;68056;52.530;5.454;2024-01-11T10:25:12;-1.30;64.20
78733;DHT22;68056;52.530;5.454;2024-01-11T10:27:41;-1.30;64.30
78733;DHT22;68056;52.530;5.454;2024-01-11T10:30:08;-1.30;64.30
78733;DHT22;68056;52.530;5.454;2024-01-11T10:32:34;-1.30;64.30
78733;DHT22;68056;52.530;5.454;2024-01-11T10:35:04;-1.20;64.40
78733;DHT22;68056;52.530;5.454;2024-01-11T10:37:31;-1.10;64.40
78733;DHT22;68056;52.530;5.454;2024-01-11T10:40:05;-1.10;64.50
78733;DHT22;68056;52.530;5.454;2024-01-11T10:42:36;-1.10;64.50
78733;DHT22;68056;52.530;5.454;2024-01-11T10:45:03;-1.10;64.60
78733;DHT22;68056;52.530;5.454;2024-01-11T10:47:31;-1.00;64.70
78733;DHT22;68056;52.530;5.454;2024-01-11T10:49:58;-1.00;64.70
78733;DHT22;68056;52.530;5.454;2024-01-11T10:52:28;-0.90;64.70
78733;DHT22;68056;52.530;5.454;2024-01-11T10:55:00;-0.90;64.70
78733;DHT22;68056;52.530;5.454;2024-01-11T10:57:29;-0.70;64.80
78733;DHT22;68056;52.530;5.454;2024-01-11T10:59:54;-0.70;64.90
78733;DHT22;68056;52.530;5.454;2024-01-11T11:02:22;-0.70;64.80
78733;DHT22;68056;52.530;5.454;2024-01-11T11:04:50;-0.60;64.80
78733;DHT22;68056;52.530;5.454;2024-01-11T11:07:16;-0.60;64.80
78733;DHT22;68056;52.530;5.454;2024-01-11T11:09:44;-0.50;64.90
78733;DHT22;68056;52.530;5.454;2024-01-11T11:12:11;-0.40;64.90
78733;DHT22;68056;52.530;5.454;2024-01-11T11:14:37;-0.40;65.00
78733;DHT22;68056;52.530;5.454;2024-01-11T11:17:03;-0.30;64.90
78733;DHT22;68056;52.530;5.454;2024-01-11T11:19:30;-0.20;65.00
78733;DHT22;68056;52.530;5.454;2024-01-11T11:21:55;-0.20;65.00
78733;DHT22;68056;52.530;5.454;2024-01-11T11:24:21;-0.10;65.00
78733;DHT22;68056;52.530;5.454;2024-01-11T11:26:47;-0.10;65.00
78733;DHT22;68056;52.530;5.454;2024-01-11T11:29:15;0.00;65.00
78733;DHT22;68056;52.530;5.454;2024-01-11T11:31:45;0.00;65.00
78733;DHT22;68056;52.530;5.454;2024-01-11T11:34:19;0.00;65.10
78733;DHT22;68056;52.530;5.454;2024-01-11T11:36:50;0.00;65.10
78733;DHT22;68056;52.530;5.454;2024-01-11T11:39:20;0.00;65.10
78733;DHT22;68056;52.530;5.454;2024-01-11T11:41:47;0.00;65.20
78733;DHT22;68056;52.530;5.454;2024-01-11T11:44:16;0.10;65.20
78733;DHT22;68056;52.530;5.454;2024-01-11T11:46:42;0.20;65.30
78733;DHT22;68056;52.530;5.454;2024-01-11T11:49:09;0.20;65.40
78733;DHT22;68056;52.530;5.454;2024-01-11T11:51:35;0.30;65.40
78733;DHT22;68056;52.530;5.454;2024-01-11T11:54:04;0.30;65.50
78733;DHT22;68056;52.530;5.454;2024-01-11T11:56:29;0.30;65.60
78733;DHT22;68056;52.530;5.454;2024-01-11T11:58:56;0.40;65.70
78733;DHT22;68056;52.530;5.454;2024-01-11T12:01:22;0.40;65.70
78733;DHT22;68056;52.530;5.454;2024-01-11T12:03:47;0.50;65.70
78733;DHT22;68056;52.530;5.454;2024-01-11T12:06:20;0.50;65.80
78733;DHT22;68056;52.530;5.454;2024-01-11T12:08:48;0.50;65.80
78733;DHT22;68056;52.530;5.454;2024-01-11T12:11:23;0.50;65.90
78733;DHT22;68056;52.530;5.454;2024-01-11T12:13:50;0.50;66.00
78733;DHT22;68056;52.530;5.454;2024-01-11T12:16:15;0.60;66.00
78733;DHT22;68056;52.530;5.454;2024-01-11T12:18:41;0.60;66.10
78733;DHT22;68056;52.530;5.454;2024-01-11T12:21:08;0.60;66.20
78733;DHT22;68056;52.530;5.454;2024-01-11T12:23:34;0.60;66.30
78733;DHT22;68056;52.530;5.454;2024-01-11T12:26:03;0.60;66.40
78733;DHT22;68056;52.530;5.454;2024-01-11T12:28:33;0.60;66.40
78733;DHT22;68056;52.530;5.454;2024-01-11T12:30:59;0.70;66.50
78733;DHT22;68056;52.530;5.454;2024-01-11T12:33:26;0.80;66.50
78733;DHT22;68056;52.530;5.454;2024-01-11T12:35:52;0.80;66.50
78733;DHT22;68056;52.530;5.454;2024-01-11T12:38:17;0.80;66.50
78733;DHT22;68056;52.530;5.454;2024-01-11T12:40:46;0.90;66.60
78733;DHT22;68056;52.530;5.454;2024-01-11T12:43:11;0.90;66.80
78733;DHT22;68056;52.530;5.454;2024-01-11T12:45:37;1.00;66.80
78733;DHT22;68056;52.530;5.454;2024-01-11T12:48:06;1.00;66.90
78733;DHT22;68056;52.530;5.454;2024-01-11T12:50:31;1.00;66.90
78733;DHT22;68056;52.530;5.454;2024-01-11T12:53:09;1.10;67.00
78733;DHT22;68056;52.530;5.454;2024-01-11T12:55:35;1.10;67.00
78733;DHT22;68056;52.530;5.454;2024-01-11T12:58:07;1.10;67.10
78733;DHT22;68056;52.530;5.454;2024-01-11T13:00:35;1.10;67.10
78733;DHT22;68056;52.530;5.454;2024-01-11T13:03:02;1.20;67.10
78733;DHT22;68056;52.530;5.454;2024-01-11T13:05:27;1.20;67.20
78733;DHT22;68056;52.530;5.454;2024-01-11T13:07:53;1.20;67.20
78733;DHT22;68056;52.530;5.454;2024-01-11T13:10:18;1.20;67.20
78733;DHT22;68056;52.530;5.454;2024-01-11T13:12:44;1.20;67.20
78733;DHT22;68056;52.530;5.454;2024-01-11T13:15:11;1.30;67.30
78733;DHT22;68056;52.530;5.454;2024-01-11T13:17:36;1.40;67.30
78733;DHT22;68056;52.530;5.454;2024-01-11T13:20:02;1.40;67.40
78733;DHT22;68056;52.530;5.454;2024-01-11T13:22:28;1.40;67.30
78733;DHT22;68056;52.530;5.454;2024-01-11T13:24:53;1.40;67.50
78733;DHT22;68056;52.530;5.454;2024-01-11T13:27:19;1.40;67.50
78733;DHT22;68056;52.530;5.454;2024-01-11T13:29:44;1.40;67.60
78733;DHT22;68056;52.530;5.454;2024-01-11T13:32:10;1.40;67.60
78733;DHT22;68056;52.530;5.454;2024-01-11T13:34:36;1.40;67.60
78733;DHT22;68056;52.530;5.454;2024-01-11T13:37:02;1.40;67.70
78733;DHT22;68056;52.530;5.454;2024-01-11T13:39:28;1.40;67.80
78733;DHT22;68056;52.530;5.454;2024-01-11T13:41:54;1.40;67.90
78733;DHT22;68056;52.530;5.454;2024-01-11T13:44:19;1.40;68.00
78733;DHT22;68056;52.530;5.454;2024-01-11T13:46:45;1.40;68.10
78733;DHT22;68056;52.530;5.454;2024-01-11T13:49:10;1.40;68.20
78733;DHT22;68056;52.530;5.454;2024-01-11T13:51:36;1.40;68.20
78733;DHT22;68056;52.530;5.454;2024-01-11T13:54:03;1.40;68.30
78733;DHT22;68056;52.530;5.454;2024-01-11T13:56:28;1.40;68.30
78733;DHT22;68056;52.530;5.454;2024-01-11T13:58:54;1.40;68.40
78733;DHT22;68056;52.530;5.454;2024-01-11T14:01:20;1.50;68.40
78733;DHT22;68056;52.530;5.454;2024-01-11T14:03:46;1.40;68.50
78733;DHT22;68056;52.530;5.454;2024-01-11T14:06:11;1.50;68.60
78733;DHT22;68056;52.530;5.454;2024-01-11T14:08:38;1.50;68.50
78733;DHT22;68056;52.530;5.454;2024-01-11T14:11:04;1.50;68.60
78733;DHT22;68056;52.530;5.454;2024-01-11T14:13:29;1.50;68.70
78733;DHT22;68056;52.530;5.454;2024-01-11T14:15:55;1.60;68.90
78733;DHT22;68056;52.530;5.454;2024-01-11T14:18:22;1.60;69.00
78733;DHT22;68056;52.530;5.454;2024-01-11T14:20:48;1.60;69.00
78733;DHT22;68056;52.530;5.454;2024-01-11T14:23:13;1.60;69.10
78733;DHT22;68056;52.530;5.454;2024-01-11T14:25:39;1.60;69.00
78733;DHT22;68056;52.530;5.454;2024-01-11T14:28:05;1.60;69.00
78733;DHT22;68056;52.530;5.454;2024-01-11T14:30:30;1.60;69.10
78733;DHT22;68056;52.530;5.454;2024-01-11T14:32:56;1.60;69.10
78733;DHT22;68056;52.530;5.454;2024-01-11T14:35:21;1.60;69.10
78733;DHT22;68056;52.530;5.454;2024-01-11T14:37:47;1.70;69.20
78733;DHT22;68056;52.530;5.454;2024-01-11T14:40:12;1.70;69.20
78733;DHT22;68056;52.530;5.454;2024-01-11T14:42:38;1.70;69.30
78733;DHT22;68056;52.530;5.454;2024-01-11T14:45:05;1.70;69.30
78733;DHT22;68056;52.530;5.454;2024-01-11T14:47:31;1.70;69.30
78733;DHT22;68056;52.530;5.454;2024-01-11T14:49:58;1.70;69.30
78733;DHT22;68056;52.530;5.454;2024-01-11T14:52:24;1.70;69.30
78733;DHT22;68056;52.530;5.454;2024-01-11T14:54:50;1.80;69.40
78733;DHT22;68056;52.530;5.454;2024-01-11T14:57:16;1.80;69.40
78733;DHT22;68056;52.530;5.454;2024-01-11T14:59:42;1.80;69.40
78733;DHT22;68056;52.530;5.454;2024-01-11T15:02:08;1.80;69.40
78733;DHT22;68056;52.530;5.454;2024-01-11T15:04:35;1.80;69.40
78733;DHT22;68056;52.530;5.454;2024-01-11T15:07:00;1.80;69.40
78733;DHT22;68056;52.530;5.454;2024-01-11T15:09:26;1.80;69.50
78733;DHT22;68056;52.530;5.454;2024-01-11T15:11:52;1.80;69.50
78733;DHT22;68056;52.530;5.454;2024-01-11T15:14:18;1.90;69.60
78733;DHT22;68056;52.530;5.454;2024-01-11T15:16:44;1.90;69.60
78733;DHT22;68056;52.530;5.454;2024-01-11T15:19:11;1.90;69.50
78733;DHT22;68056;52.530;5.454;2024-01-11T15:21:38;1.90;69.50
78733;DHT22;68056;52.530;5.454;2024-01-11T15:24:04;1.90;69.60
78733;DHT22;68056;52.530;5.454;2024-01-11T15:26:30;1.90;69.60
78733;DHT22;68056;52.530;5.454;2024-01-11T15:28:56;1.90;69.70